Time;durP1;ratioP1;P1;durP2;ratioP2;P2;SDS_P1;SDS_P2;PMS_P1;PMS_P2;Temp;Humidity;BMP_temperature;BMP_pressure;BME280_temperature;BME280_humidity;BME280_pressure;Samples;Min_cycle;Max_cycle;Signal;HPM_P1;HPM_P2
2023/09/20 00:02:49;;;;;;;4.07;3.25;;;13.80;99.90;;;;;;10396407;28;20184;-92
2023/09/20 00:07:56;;;;;;;9.30;4.45;;;14.00;99.90;;;;;;10412004;28;20212;-91
2023/09/20 00:12:59;;;;;;;9.35;3.97;;;13.70;99.90;;;;;;10411959;28;20188;-93
2023/09/20 00:18:02;;;;;;;7.45;4.13;;;13.60;99.90;;;;;;10412215;28;20201;-92
2023/09/20 00:23:04;;;;;;;6.70;4.07;;;13.60;99.90;;;;;;10391589;28;20185;-93
2023/09/20 00:28:08;;;;;;;3.67;2.83;;;13.50;99.90;;;;;;10372493;28;20217;-92
2023/09/20 00:33:14;;;;;;;5.53;3.50;;;13.60;99.90;;;;;;10401017;28;20177;-93
2023/09/20 00:38:18;;;;;;;5.47;3.40;;;13.30;99.90;;;;;;10369821;28;20185;-92
2023/09/20 00:43:24;;;;;;;4.85;2.97;;;13.20;99.90;;;;;;10386263;28;20177;-92
2023/09/20 00:48:30;;;;;;;8.40;3.95;;;13.30;99.90;;;;;;10370172;28;20244;-92
2023/09/20 00:53:35;;;;;;;8.90;3.75;;;13.20;99.90;;;;;;10391464;28;20188;-93
2023/09/20 00:58:38;;;;;;;8.50;3.85;;;13.00;99.90;;;;;;10410014;28;20196;-92
2023/09/20 01:03:43;;;;;;;7.18;3.72;;;12.80;99.90;;;;;;10393897;28;20211;-93
2023/09/20 01:08:46;;;;;;;4.50;3.38;;;12.80;99.90;;;;;;10409568;28;20291;-92
2023/09/20 01:13:50;;;;;;;6.10;3.70;;;12.80;99.90;;;;;;10425767;28;20181;-91
2023/09/20 01:18:53;;;;;;;10.00;4.72;;;12.90;99.90;;;;;;10426672;28;20199;-93
2023/09/20 01:23:56;;;;;;;6.28;3.65;;;12.90;99.90;;;;;;10409387;28;20172;-92
2023/09/20 01:29:00;;;;;;;4.82;3.10;;;13.10;99.90;;;;;;10408313;28;20220;-92
2023/09/20 01:34:03;;;;;;;4.75;2.97;;;13.00;99.90;;;;;;10388431;28;20204;-91
2023/09/20 01:39:09;;;;;;;5.13;3.35;;;13.10;99.90;;;;;;10370849;28;20185;-91
2023/09/20 01:44:12;;;;;;;6.32;3.80;;;13.10;99.90;;;;;;10369922;28;20185;-93
2023/09/20 01:49:15;;;;;;;6.35;3.80;;;12.90;99.90;;;;;;10370767;28;20220;-92
2023/09/20 01:54:20;;;;;;;6.75;3.45;;;12.90;99.90;;;;;;10370154;28;20201;-92
2023/09/20 01:59:22;;;;;;;4.90;3.15;;;12.90;99.90;;;;;;10353252;28;20181;-92
2023/09/20 02:04:25;;;;;;;4.75;3.67;;;12.80;99.90;;;;;;10377122;28;20237;-93
2023/09/20 02:09:27;;;;;;;8.75;4.35;;;13.00;99.90;;;;;;10393248;28;20227;-92
2023/09/20 02:14:30;;;;;;;6.75;3.72;;;12.80;99.90;;;;;;10409794;28;20192;-92
2023/09/20 02:19:34;;;;;;;3.78;2.60;;;12.60;99.90;;;;;;10409688;28;20192;-93
2023/09/20 02:24:39;;;;;;;9.68;3.28;;;12.80;99.90;;;;;;10366410;28;20185;-92
2023/09/20 02:29:42;;;;;;;3.45;2.65;;;13.00;99.90;;;;;;10368815;28;20227;-91
2023/09/20 02:34:45;;;;;;;5.20;3.55;;;12.90;99.90;;;;;;10369028;28;20173;-92
2023/09/20 02:39:47;;;;;;;10.20;3.60;;;12.70;99.90;;;;;;10384276;28;20193;-92
2023/09/20 02:44:51;;;;;;;2.17;1.83;;;12.70;99.90;;;;;;10368039;28;20185;-91
2023/09/20 02:49:53;;;;;;;5.85;3.95;;;12.70;99.90;;;;;;10352378;28;20224;-91
2023/09/20 02:54:58;;;;;;;7.07;3.65;;;12.90;99.90;;;;;;10367642;28;20181;-92
2023/09/20 03:00:06;;;;;;;4.50;3.47;;;12.90;99.90;;;;;;10390673;28;20207;-91
2023/09/20 03:05:09;;;;;;;4.05;3.25;;;12.80;99.90;;;;;;10391909;28;20216;-91
2023/09/20 03:10:13;;;;;;;4.75;3.67;;;13.00;99.90;;;;;;10425271;28;20196;-90
2023/09/20 03:15:21;;;;;;;5.00;2.28;;;13.00;99.90;;;;;;10369141;28;20266;-91
2023/09/20 03:20:26;;;;;;;4.43;3.10;;;13.00;99.90;;;;;;10339332;28;20634;-91
2023/09/20 03:25:36;;;;;;;4.13;2.80;;;12.90;99.90;;;;;;10358060;28;20208;-91
2023/09/20 03:31:10;;;;;;;6.10;3.60;;;13.10;99.90;;;;;;10371824;28;20776;-91
2023/09/20 03:36:17;;;;;;;4.65;3.15;;;13.10;99.90;;;;;;10340739;28;20208;-91
2023/09/20 03:41:24;;;;;;;4.13;3.55;;;13.10;99.90;;;;;;10356138;28;20258;-91
2023/09/20 03:46:27;;;;;;;5.60;2.63;;;13.20;99.90;;;;;;10339456;28;20216;-92
2023/09/20 03:51:31;;;;;;;3.28;2.97;;;12.80;99.90;;;;;;10355933;28;20224;-91
2023/09/20 03:56:35;;;;;;;6.38;3.25;;;12.80;99.90;;;;;;10338996;28;20204;-91
2023/09/20 04:01:39;;;;;;;4.13;3.40;;;13.00;99.90;;;;;;10355529;28;20664;-91
2023/09/20 04:06:43;;;;;;;4.72;3.30;;;13.20;99.90;;;;;;10354820;28;20288;-91
2023/09/20 04:11:46;;;;;;;4.65;3.92;;;13.10;99.90;;;;;;10353553;28;20291;-91
2023/09/20 04:16:49;;;;;;;2.47;2.28;;;13.10;99.90;;;;;;10338444;28;20216;-91
2023/09/20 04:21:52;;;;;;;7.50;3.60;;;13.10;99.90;;;;;;10341828;28;20235;-90
2023/09/20 04:26:54;;;;;;;5.85;4.35;;;12.90;99.90;;;;;;10323749;28;20205;-91
2023/09/20 04:31:58;;;;;;;6.35;3.08;;;12.80;99.90;;;;;;10361346;28;20236;-90
2023/09/20 04:37:02;;;;;;;5.38;3.95;;;12.50;99.90;;;;;;10361577;28;20212;-92
2023/09/20 04:42:11;;;;;;;4.70;3.75;;;12.80;99.90;;;;;;10360751;28;20208;-91
2023/09/20 04:47:16;;;;;;;3.60;3.30;;;12.90;99.90;;;;;;10361913;28;20212;-89
2023/09/20 04:52:22;;;;;;;6.95;4.07;;;12.70;99.90;;;;;;10360007;28;20232;-91
2023/09/20 04:57:25;;;;;;;2.97;2.45;;;12.70;99.90;;;;;;10321213;28;20535;-91
2023/09/20 05:02:29;;;;;;;2.97;2.67;;;13.10;99.90;;;;;;10314929;28;20945;-90
2023/09/20 05:07:33;;;;;;;12.95;3.85;;;13.00;99.90;;;;;;10314534;28;20295;-90
2023/09/20 05:12:38;;;;;;;6.97;3.95;;;13.10;99.90;;;;;;10325776;28;20239;-90
2023/09/20 05:17:43;;;;;;;6.50;4.57;;;13.20;99.90;;;;;;10353834;28;20286;-91
2023/09/20 05:22:46;;;;;;;12.77;3.95;;;13.30;99.90;;;;;;10353533;28;20248;-91
2023/09/20 05:27:49;;;;;;;7.60;3.85;;;13.60;99.90;;;;;;10353178;28;20220;-91
2023/09/20 05:32:53;;;;;;;8.35;3.65;;;13.80;99.90;;;;;;10295538;28;20208;-90
2023/09/20 05:37:56;;;;;;;4.90;3.78;;;14.00;99.90;;;;;;10333747;28;20295;-89
2023/09/20 05:42:58;;;;;;;4.97;2.70;;;14.10;99.90;;;;;;10350061;28;20661;-91
2023/09/20 05:48:02;;;;;;;3.70;2.72;;;14.40;99.90;;;;;;10350044;28;20252;-91
2023/09/20 05:53:07;;;;;;;4.22;2.10;;;14.60;99.90;;;;;;10333046;28;20219;-90
2023/09/20 05:58:11;;;;;;;5.75;2.40;;;14.90;99.90;;;;;;10342167;28;20298;-90
2023/09/20 06:03:16;;;;;;;3.67;2.38;;;15.00;99.90;;;;;;10336501;28;20247;-89
2023/09/20 06:08:19;;;;;;;5.05;3.03;;;15.10;99.90;;;;;;10366810;28;20271;-90
2023/09/20 06:13:21;;;;;;;12.52;4.88;;;15.70;99.90;;;;;;10346918;28;21006;-90
2023/09/20 06:18:25;;;;;;;9.45;3.85;;;16.20;99.90;;;;;;10366267;28;20243;-91
2023/09/20 06:23:29;;;;;;;7.72;3.65;;;16.20;99.90;;;;;;10350200;28;20200;-91
2023/09/20 06:28:32;;;;;;;8.32;4.28;;;15.50;99.90;;;;;;10351047;28;20334;-91
2023/09/20 06:33:35;;;;;;;13.63;5.18;;;15.20;99.90;;;;;;10349560;28;20240;-92
2023/09/20 06:38:37;;;;;;;10.07;4.90;;;15.00;99.90;;;;;;10332740;28;20310;-92
2023/09/20 06:43:42;;;;;;;13.23;4.30;;;15.10;99.90;;;;;;10327314;28;20256;-88
2023/09/20 06:48:44;;;;;;;6.20;3.38;;;15.00;99.90;;;;;;10360337;28;20248;-83
2023/09/20 06:53:48;;;;;;;7.63;3.05;;;15.70;99.90;;;;;;10366617;28;20317;-83
2023/09/20 06:58:55;;;;;;;5.75;2.88;;;16.30;99.90;;;;;;10366516;28;20341;-83
2023/09/20 07:03:57;;;;;;;8.70;3.15;;;16.90;99.90;;;;;;10366989;28;20232;-83
2023/09/20 07:09:00;;;;;;;5.85;2.70;;;17.40;98.30;;;;;;10325752;28;20260;-83
2023/09/20 07:14:05;;;;;;;3.83;2.47;;;17.70;96.70;;;;;;10324109;28;20240;-83
2023/09/20 07:19:12;;;;;;;4.63;2.50;;;17.90;96.00;;;;;;10325947;28;20322;-84
2023/09/20 07:24:15;;;;;;;5.43;1.90;;;18.10;94.80;;;;;;10317362;28;20232;-89
2023/09/20 07:29:18;;;;;;;8.43;2.28;;;18.40;94.70;;;;;;10321775;28;20283;-90
2023/09/20 07:34:23;;;;;;;9.13;2.60;;;18.80;93.80;;;;;;10321829;28;20270;-90
2023/09/20 07:39:26;;;;;;;7.38;2.45;;;19.50;91.60;;;;;;10312580;28;20679;-89
2023/09/20 07:44:31;;;;;;;4.85;2.17;;;19.70;90.90;;;;;;10322287;28;20845;-91
2023/09/20 07:49:35;;;;;;;4.18;1.77;;;20.00;89.30;;;;;;10325436;28;20260;-91
2023/09/20 07:54:37;;;;;;;5.18;2.13;;;20.40;90.00;;;;;;10325354;28;20232;-90
2023/09/20 07:59:40;;;;;;;2.75;1.65;;;20.60;86.30;;;;;;10330414;28;20248;-92
2023/09/20 08:04:42;;;;;;;3.38;1.30;;;21.10;84.30;;;;;;10310452;28;20255;-91
2023/09/20 08:09:45;;;;;;;5.30;2.17;;;21.50;83.10;;;;;;10353747;28;20295;-90
2023/09/20 08:14:48;;;;;;;3.13;1.42;;;22.00;76.50;;;;;;10365692;28;20613;-90
2023/09/20 08:19:50;;;;;;;3.78;1.40;;;22.20;75.30;;;;;;10314497;28;20718;-92
2023/09/20 09:02:53;;;;;;;3.58;1.52;;;;;;;;;;10354972;28;20244;-91
2023/09/20 09:07:58;;;;;;;1.83;1.30;;;23.00;92.10;;;;;;10324802;28;20291;-91
2023/09/20 09:13:01;;;;;;;2.10;1.40;;;23.50;92.00;;;;;;10327477;28;20248;-91
2023/09/20 09:18:12;;;;;;;1.65;1.40;;;23.30;91.30;;;;;;10313253;28;20268;-90
2023/09/20 09:23:37;;;;;;;1.60;1.23;;;23.30;61.70;;;;;;10330809;28;20259;-90
2023/09/20 09:28:42;;;;;;;1.50;1.15;;;23.40;64.40;;;;;;10301648;28;20232;-91
2023/09/20 09:33:46;;;;;;;2.05;1.25;;;23.50;58.40;;;;;;10310878;28;20268;-91
2023/09/20 09:38:49;;;;;;;3.42;1.40;;;23.50;60.80;;;;;;10328192;28;20220;-91
2023/09/20 09:43:58;;;;;;;2.15;1.27;;;23.40;61.70;;;;;;10328696;28;20287;-91
2023/09/20 09:49:03;;;;;;;2.08;1.60;;;23.50;60.30;;;;;;10328014;28;20244;-91
2023/09/20 09:54:07;;;;;;;7.80;1.75;;;23.50;62.00;;;;;;10311383;28;20240;-90
2023/09/20 09:59:14;;;;;;;3.15;1.58;;;23.40;58.60;;;;;;10310084;28;20290;-90
2023/09/20 10:04:19;;;;;;;3.33;1.88;;;23.30;56.40;;;;;;10328403;28;20367;-90
2023/09/20 10:09:27;;;;;;;3.45;1.48;;;23.30;56.80;;;;;;10348782;28;20248;-89
2023/09/20 10:14:30;;;;;;;2.65;1.50;;;23.50;62.40;;;;;;10309592;28;20307;-90
2023/09/20 10:19:34;;;;;;;2.03;1.35;;;23.50;58.40;;;;;;10357807;28;20700;-91
2023/09/20 10:24:50;;;;;;;5.00;1.50;;;23.40;59.20;;;;;;10363298;28;20279;-90
2023/09/20 10:30:10;;;;;;;2.17;1.30;;;23.40;57.00;;;;;;10351389;28;20259;-91
2023/09/20 10:35:22;;;;;;;2.78;1.30;;;23.40;54.70;;;;;;10347994;28;20294;-90
2023/09/20 10:40:45;;;;;;;1.90;1.08;;;23.40;61.40;;;;;;10332177;28;20291;-91
2023/09/20 10:45:53;;;;;;;1.42;1.30;;;23.60;61.80;;;;;;10323649;28;20702;-90
2023/09/20 10:50:57;;;;;;;2.70;1.05;;;23.50;60.00;;;;;;10340386;28;20282;-92
2023/09/20 10:56:00;;;;;;;1.70;1.10;;;23.60;59.90;;;;;;10325733;28;20224;-92
2023/09/20 11:01:03;;;;;;;4.00;1.08;;;23.60;59.00;;;;;;10346892;28;20235;-91
2023/09/20 11:06:06;;;;;;;2.20;1.33;;;23.60;59.40;;;;;;10346995;28;20297;-91
2023/09/20 11:11:15;;;;;;;2.55;2.05;;;23.60;59.20;;;;;;10329507;28;20255;-92
2023/09/20 11:16:19;;;;;;;2.28;1.05;;;23.50;56.20;;;;;;10349381;28;20933;-92
2023/09/20 11:21:24;;;;;;;6.57;1.35;;;23.50;58.70;;;;;;10338049;28;20228;-92
2023/09/20 11:26:30;;;;;;;2.58;1.33;;;23.40;61.10;;;;;;10365123;28;20270;-92
2023/09/20 11:31:35;;;;;;;2.47;1.45;;;23.30;61.40;;;;;;10323233;28;21132;-91
2023/09/20 11:36:40;;;;;;;1.95;1.00;;;23.30;61.90;;;;;;10342170;28;20612;-92
2023/09/20 11:41:46;;;;;;;2.78;0.75;;;23.40;59.50;;;;;;10330828;28;20294;-93
2023/09/20 11:46:53;;;;;;;4.95;1.20;;;23.40;60.10;;;;;;10364007;28;20235;-91
2023/09/20 11:51:58;;;;;;;2.20;1.05;;;23.40;60.00;;;;;;10372053;28;20280;-91
2023/09/20 11:57:03;;;;;;;5.35;1.20;;;23.40;62.00;;;;;;10373690;28;20685;-92
2023/09/20 12:02:07;;;;;;;1.38;1.23;;;23.30;61.70;;;;;;10355049;28;20679;-91
2023/09/20 12:07:09;;;;;;;3.35;1.63;;;23.30;63.40;;;;;;10373193;28;20643;-91
2023/09/20 12:12:12;;;;;;;1.85;1.20;;;23.30;58.30;;;;;;10352292;28;20263;-92
2023/09/20 12:17:15;;;;;;;1.15;0.80;;;23.40;61.80;;;;;;10332211;28;20256;-92
2023/09/20 12:22:20;;;;;;;1.23;0.95;;;23.50;61.00;;;;;;10319937;28;20224;-92
2023/09/20 12:27:23;;;;;;;5.18;1.30;;;23.40;63.30;;;;;;10313849;28;20236;-91
2023/09/20 12:32:25;;;;;;;1.38;1.05;;;23.40;61.00;;;;;;10352920;28;20355;-92
2023/09/20 12:37:30;;;;;;;4.35;0.95;;;23.30;60.50;;;;;;10354568;28;20239;-92
2023/09/20 12:42:34;;;;;;;1.23;1.13;;;23.20;61.20;;;;;;10343883;28;20236;-92
2023/09/20 12:47:42;;;;;;;2.08;1.02;;;23.30;60.50;;;;;;10320927;28;20243;-92
2023/09/20 12:52:47;;;;;;;3.83;1.17;;;23.50;62.60;;;;;;10335118;28;20256;-92
2023/09/20 12:57:50;;;;;;;1.10;0.80;;;23.50;60.50;;;;;;10324235;28;20305;-92
2023/09/20 13:02:52;;;;;;;2.58;1.35;;;23.40;61.20;;;;;;10328669;28;20314;-92
2023/09/20 13:07:59;;;;;;;1.90;1.20;;;23.50;60.90;;;;;;10330896;28;20333;-92
2023/09/20 13:13:03;;;;;;;4.43;0.95;;;23.60;60.60;;;;;;10328482;28;20244;-92
2023/09/20 13:18:06;;;;;;;2.90;0.95;;;23.70;58.60;;;;;;10366457;28;20686;-92
2023/09/20 13:23:12;;;;;;;1.60;0.95;;;23.70;59.40;;;;;;10325637;28;20297;-92
2023/09/20 13:28:15;;;;;;;0.75;0.75;;;24.00;63.10;;;;;;10352379;28;20913;-92
2023/09/20 13:33:17;;;;;;;1.13;0.82;;;24.00;58.80;;;;;;10368918;28;20344;-92
2023/09/20 13:38:21;;;;;;;2.33;1.30;;;23.90;60.50;;;;;;10347327;28;20213;-93
2023/09/20 13:43:27;;;;;;;2.40;1.10;;;23.90;58.40;;;;;;10311040;28;20299;-91
2023/09/20 13:48:29;;;;;;;1.60;1.30;;;23.90;60.50;;;;;;10338997;28;20243;-91
2023/09/20 13:53:32;;;;;;;1.23;1.13;;;24.00;59.50;;;;;;10349707;28;20634;-91
2023/09/20 13:58:35;;;;;;;1.75;0.85;;;24.10;60.80;;;;;;10346197;28;20270;-90
2023/09/20 14:03:38;;;;;;;1.15;0.60;;;24.00;59.80;;;;;;10350118;28;20294;-93
2023/09/20 14:08:42;;;;;;;0.93;0.52;;;24.00;51.90;;;;;;10351115;28;20256;-92
2023/09/20 14:13:45;;;;;;;1.00;0.90;;;24.00;56.50;;;;;;10311760;28;20314;-92
2023/09/20 14:18:50;;;;;;;1.77;0.63;;;24.00;56.10;;;;;;10336465;28;20237;-92
2023/09/20 14:23:55;;;;;;;2.28;1.08;;;23.90;56.50;;;;;;10309416;28;20241;-93
2023/09/20 14:28:59;;;;;;;2.28;0.90;;;23.80;53.10;;;;;;10326053;28;20666;-91
2023/09/20 14:34:02;;;;;;;1.38;0.85;;;23.70;55.20;;;;;;10328200;28;20291;-90
2023/09/20 14:39:04;;;;;;;1.33;1.10;;;23.80;57.60;;;;;;10314729;28;20233;-90
2023/09/20 14:44:07;;;;;;;3.78;1.00;;;23.70;56.10;;;;;;10357538;28;20236;-91
2023/09/20 14:49:11;;;;;;;4.60;1.13;;;23.80;57.00;;;;;;10349201;28;20286;-91
2023/09/20 14:54:13;;;;;;;3.25;1.23;;;23.90;57.90;;;;;;10333146;28;20386;-91
2023/09/20 14:59:16;;;;;;;2.15;1.35;;;23.80;59.00;;;;;;10331884;28;20612;-91
2023/09/20 15:04:19;;;;;;;1.50;1.00;;;23.80;58.20;;;;;;10340042;28;20704;-91
2023/09/20 15:09:22;;;;;;;2.13;1.48;;;23.80;60.40;;;;;;10335526;28;20263;-90
2023/09/20 15:14:26;;;;;;;1.90;1.40;;;23.90;55.20;;;;;;10327688;28;20818;-90
2023/09/20 15:19:29;;;;;;;1.38;1.10;;;23.90;61.00;;;;;;10348625;28;20282;-91
2023/09/20 15:24:32;;;;;;;2.80;1.63;;;23.90;57.10;;;;;;10331397;28;20764;-91
2023/09/20 15:29:34;;;;;;;3.85;1.13;;;23.90;56.40;;;;;;10347492;28;20671;-90
2023/09/20 15:34:37;;;;;;;0.82;0.80;;;23.70;58.50;;;;;;10364994;28;20543;-90
2023/09/20 15:39:39;;;;;;;1.05;0.90;;;23.80;62.50;;;;;;10357298;28;20216;-90
2023/09/20 15:44:54;;;;;;;1.50;1.27;;;23.90;61.90;;;;;;10331482;28;20243;-90
2023/09/20 15:49:58;;;;;;;0.90;0.80;;;23.70;59.90;;;;;;10322843;28;20314;-90
2023/09/20 15:55:01;;;;;;;8.15;1.42;;;23.60;58.50;;;;;;10344770;28;20718;-89
2023/09/20 16:00:12;;;;;;;2.88;1.00;;;23.40;60.00;;;;;;10365672;28;20743;-89
2023/09/20 16:05:19;;;;;;;2.50;0.80;;;23.20;61.80;;;;;;10348141;28;20327;-90
2023/09/20 16:10:22;;;;;;;3.92;1.63;;;23.00;65.90;;;;;;10344112;28;20812;-88
2023/09/20 16:15:25;;;;;;;6.03;1.50;;;22.60;66.60;;;;;;10359637;28;20228;-89
2023/09/20 16:20:27;;;;;;;5.20;1.27;;;22.30;70.00;;;;;;9996705;28;10000043;-88
2023/09/20 16:25:30;;;;;;;7.72;1.85;;;21.90;73.00;;;;;;10367001;28;20240;-88
2023/09/20 16:30:32;;;;;;;6.15;2.30;;;21.50;77.20;;;;;;10367057;28;20639;-88
2023/09/20 16:35:35;;;;;;;5.90;2.25;;;21.10;85.20;;;;;;10350212;28;20294;-88
2023/09/20 16:40:38;;;;;;;4.18;1.77;;;20.80;87.60;;;;;;10346973;28;20286;-88
2023/09/20 16:45:41;;;;;;;4.10;2.00;;;20.60;89.50;;;;;;10325426;28;20361;-88
2023/09/20 16:50:43;;;;;;;8.80;2.25;;;20.40;90.70;;;;;;10329780;28;20279;-88
2023/09/20 16:55:46;;;;;;;14.20;2.80;;;20.00;93.40;;;;;;10349466;28;20236;-88
2023/09/20 17:00:49;;;;;;;6.70;3.22;;;19.60;94.90;;;;;;10365126;28;20310;-88
2023/09/20 17:05:51;;;;;;;15.40;3.17;;;19.30;95.80;;;;;;10344630;28;20718;-89
2023/09/20 17:10:54;;;;;;;11.50;2.60;;;19.00;97.60;;;;;;10342924;28;20256;-89
2023/09/20 17:15:56;;;;;;;5.95;1.92;;;18.70;98.50;;;;;;10349503;28;20744;-89
2023/09/20 17:20:59;;;;;;;7.32;2.70;;;18.50;99.60;;;;;;10361472;28;20240;-89
2023/09/20 17:26:01;;;;;;;6.43;1.73;;;18.40;99.90;;;;;;10320201;28;20691;-88
2023/09/20 17:31:10;;;;;;;9.38;2.47;;;18.30;99.90;;;;;;10331943;28;20263;-89
2023/09/20 17:36:15;;;;;;;8.40;2.38;;;18.10;99.90;;;;;;10365838;28;20791;-89
2023/09/20 17:41:18;;;;;;;16.23;2.20;;;17.90;99.90;;;;;;10348666;28;20282;-89
2023/09/20 17:46:25;;;;;;;5.78;2.35;;;17.70;99.90;;;;;;10365829;28;20247;-89
2023/09/20 17:51:28;;;;;;;12.02;2.13;;;17.50;99.90;;;;;;10337252;28;20256;-90
2023/09/20 17:56:30;;;;;;;14.95;2.08;;;17.40;99.90;;;;;;10322646;28;20237;-89
2023/09/20 18:01:33;;;;;;;16.33;2.67;;;17.30;99.90;;;;;;10335477;28;20236;-89
2023/09/20 18:06:35;;;;;;;18.33;3.35;;;17.10;99.90;;;;;;10346915;28;20263;-89
2023/09/20 18:11:38;;;;;;;22.05;3.90;;;17.00;99.90;;;;;;10330815;28;20726;-89
2023/09/20 18:16:45;;;;;;;25.58;4.68;;;16.90;99.90;;;;;;10359929;28;20225;-89
2023/09/20 18:21:48;;;;;;;23.23;3.63;;;16.90;99.90;;;;;;10324095;28;20291;-89
2023/09/20 18:26:50;;;;;;;11.43;3.35;;;16.70;99.90;;;;;;10308128;28;20232;-89
2023/09/20 18:31:53;;;;;;;9.40;3.33;;;16.60;99.90;;;;;;10326673;28;20260;-90
2023/09/20 18:36:56;;;;;;;10.27;3.05;;;16.50;99.90;;;;;;10326304;28;20245;-90
2023/09/20 18:41:59;;;;;;;12.63;3.72;;;16.40;99.90;;;;;;10325375;28;20236;-90
2023/09/20 18:47:03;;;;;;;8.05;2.65;;;16.20;99.90;;;;;;10352801;28;20248;-90
2023/09/20 18:52:10;;;;;;;9.93;2.78;;;16.20;99.90;;;;;;10332025;28;20232;-91
2023/09/20 18:57:14;;;;;;;10.52;3.13;;;16.30;99.90;;;;;;10335404;28;20240;-90
2023/09/20 19:02:23;;;;;;;6.40;2.80;;;16.40;99.90;;;;;;10336384;28;20296;-90
2023/09/20 19:07:25;;;;;;;12.38;3.20;;;16.40;99.90;;;;;;10333646;28;20263;-92
2023/09/20 19:12:28;;;;;;;4.13;2.40;;;16.40;99.90;;;;;;10350425;28;20294;-93
2023/09/20 19:17:33;;;;;;;18.20;3.95;;;16.30;99.90;;;;;;10343042;28;20306;-93
2023/09/20 19:22:36;;;;;;;8.60;3.20;;;16.40;99.90;;;;;;10365736;28;20227;-93
2023/09/20 19:27:45;;;;;;;11.15;3.85;;;16.40;99.90;;;;;;10332049;28;20247;-92
2023/09/20 19:32:47;;;;;;;14.00;3.65;;;16.40;99.90;;;;;;10354271;28;20660;-90
2023/09/20 19:37:50;;;;;;;4.85;2.90;;;16.40;99.90;;;;;;10317515;28;20228;-91
2023/09/20 19:42:53;;;;;;;11.20;3.63;;;16.20;99.90;;;;;;10365644;28;20640;-91
2023/09/20 19:47:56;;;;;;;7.47;2.47;;;16.20;99.90;;;;;;10348968;28;20314;-91
2023/09/20 19:52:59;;;;;;;10.80;3.78;;;16.30;99.90;;;;;;10330456;28;20746;-91
2023/09/20 19:58:07;;;;;;;11.63;3.47;;;16.20;99.90;;;;;;10352817;28;20747;-92
2023/09/20 20:03:11;;;;;;;5.28;3.55;;;15.90;99.90;;;;;;10331641;28;20239;-93
2023/09/20 20:08:14;;;;;;;5.55;3.03;;;15.90;99.90;;;;;;10338005;28;20318;-94
2023/09/20 20:13:16;;;;;;;7.63;3.45;;;15.80;99.90;;;;;;10363725;28;20260;-93
2023/09/20 20:18:19;;;;;;;10.90;4.03;;;15.70;99.90;;;;;;10351957;28;20294;-93
2023/09/20 20:23:22;;;;;;;10.80;3.92;;;15.50;99.90;;;;;;10331775;28;20683;-92
2023/09/20 20:28:26;;;;;;;5.43;3.25;;;15.40;99.90;;;;;;10352475;28;20569;-92
2023/09/20 20:33:28;;;;;;;5.53;3.10;;;15.30;99.90;;;;;;10370248;28;20632;-93
2023/09/20 20:38:35;;;;;;;7.63;3.05;;;15.20;99.90;;;;;;10357117;28;20612;-92
2023/09/20 20:43:39;;;;;;;3.28;2.90;;;15.10;99.90;;;;;;10332251;28;20228;-93
2023/09/20 20:48:43;;;;;;;4.93;2.90;;;15.00;99.90;;;;;;10340926;28;20307;-93
2023/09/20 20:53:47;;;;;;;7.30;3.35;;;15.00;99.90;;;;;;10331153;28;20318;-93
2023/09/20 20:58:50;;;;;;;6.65;3.45;;;15.00;99.90;;;;;;10353685;28;20220;-92
2023/09/20 21:03:53;;;;;;;3.97;2.80;;;15.10;99.90;;;;;;10364122;28;20294;-94
2023/09/20 21:08:58;;;;;;;8.02;3.65;;;15.00;99.90;;;;;;10332468;28;20287;-93
2023/09/20 21:14:03;;;;;;;5.15;2.83;;;14.70;99.90;;;;;;10333371;28;20712;-92
2023/09/20 21:19:06;;;;;;;8.20;3.92;;;14.70;99.90;;;;;;10334022;28;20233;-93
2023/09/20 21:24:10;;;;;;;6.50;3.55;;;14.60;99.90;;;;;;10331372;28;20233;-93
2023/09/20 21:29:13;;;;;;;6.15;3.03;;;14.50;99.90;;;;;;10331479;28;20236;-93
2023/09/20 21:34:16;;;;;;;7.90;2.78;;;14.60;99.90;;;;;;10320480;28;20861;-92
2023/09/20 21:39:22;;;;;;;6.75;3.30;;;14.50;99.90;;;;;;10348745;28;20798;-92
2023/09/20 21:44:25;;;;;;;5.47;2.78;;;14.40;99.90;;;;;;10346424;28;20244;-92
2023/09/20 21:49:27;;;;;;;3.40;3.10;;;14.70;99.90;;;;;;10363607;28;20245;-94
2023/09/20 21:54:30;;;;;;;5.50;2.90;;;14.70;99.90;;;;;;10328114;28;20252;-94
2023/09/20 21:59:32;;;;;;;6.25;3.70;;;14.70;99.90;;;;;;10328442;28;20265;-94
2023/09/20 22:04:35;;;;;;;6.13;3.40;;;14.80;99.90;;;;;;10321928;28;20346;-94
2023/09/20 22:09:39;;;;;;;7.85;3.05;;;14.60;99.90;;;;;;10350066;28;20216;-94
2023/09/20 22:14:42;;;;;;;10.85;4.13;;;14.30;99.90;;;;;;10330611;28;20623;-94
2023/09/20 22:19:45;;;;;;;4.43;2.95;;;14.30;99.90;;;;;;10368465;28;20208;-93
2023/09/20 22:24:53;;;;;;;6.00;3.92;;;14.40;99.90;;;;;;10368191;28;20641;-92
2023/09/20 22:29:56;;;;;;;7.75;3.65;;;14.30;99.90;;;;;;10367827;28;20244;-92
2023/09/20 22:34:59;;;;;;;5.63;3.70;;;14.10;99.90;;;;;;10353187;28;20260;-93
2023/09/20 22:40:06;;;;;;;11.43;4.25;;;14.30;99.90;;;;;;10335891;28;20303;-94
2023/09/20 22:45:23;;;;;;;3.72;3.13;;;14.10;99.90;;;;;;10310310;28;20208;-93
2023/09/20 22:50:28;;;;;;;5.20;3.33;;;14.30;99.90;;;;;;10309929;28;20633;-93
2023/09/20 22:55:39;;;;;;;6.03;4.05;;;14.20;99.90;;;;;;10327115;28;20311;-93
2023/09/20 23:00:44;;;;;;;4.97;4.07;;;13.90;99.90;;;;;;10326927;28;20309;-93
2023/09/20 23:05:49;;;;;;;8.45;4.63;;;13.90;99.90;;;;;;10338548;28;20321;-93
2023/09/20 23:10:54;;;;;;;7.00;3.72;;;13.90;99.90;;;;;;10328475;28;20233;-94
2023/09/20 23:15:57;;;;;;;6.65;3.97;;;13.90;99.90;;;;;;10344357;28;20255;-93
2023/09/20 23:21:00;;;;;;;6.22;3.65;;;13.90;99.90;;;;;;10323745;28;20280;-94
2023/09/20 23:26:05;;;;;;;8.80;3.78;;;13.80;99.90;;;;;;10331160;28;20236;-93
2023/09/20 23:31:12;;;;;;;7.25;4.07;;;13.90;99.90;;;;;;10346538;28;20211;-93
2023/09/20 23:36:15;;;;;;;8.45;3.97;;;13.70;99.90;;;;;;10346970;28;20268;-93
2023/09/20 23:41:18;;;;;;;4.82;4.18;;;13.70;99.90;;;;;;10330896;28;20235;-92
2023/09/20 23:46:22;;;;;;;12.32;5.28;;;13.50;99.90;;;;;;10351317;28;20239;-93
2023/09/20 23:51:25;;;;;;;8.80;4.40;;;13.40;99.90;;;;;;10380138;28;20212;-94
2023/09/20 23:56:28;;;;;;;8.88;4.90;;;13.30;99.90;;;;;;10362980;28;20675;-92
